sensor_id;sensor_type;location;lat;lon;timestamp;P1;durP1;ratioP1;P2;durP2;ratioP2
1737;SDS011;16278;48.740;8.736;2022-08-01T00:00:30;0.70;;;0.30;;
1737;SDS011;16278;48.740;8.736;2022-08-01T00:02:56;0.70;;;0.40;;
1737;SDS011;16278;48.740;8.736;2022-08-01T00:05:23;0.60;;;0.40;;
1737;SDS011;16278;48.740;8.736;2022-08-01T00:07:49;0.57;;;0.40;;
1737;SDS011;16278;48.740;8.736;2022-08-01T00:10:15;0.50;;;0.40;;
1737;SDS011;16278;48.740;8.736;2022-08-01T00:12:42;0.40;;;0.40;;
1737;SDS011;16278;48.740;8.736;2022-08-01T00:15:10;0.60;;;0.40;;
1737;SDS011;16278;48.740;8.736;2022-08-01T00:17:37;0.83;;;0.40;;
1737;SDS011;16278;48.740;8.736;2022-08-01T00:20:04;0.40;;;0.40;;
1737;SDS011;16278;48.740;8.736;2022-08-01T00:22:31;0.60;;;0.40;;
1737;SDS011;16278;48.740;8.736;2022-08-01T00:24:58;0.60;;;0.30;;
1737;SDS011;16278;48.740;8.736;2022-08-01T00:27:24;1.17;;;0.40;;
1737;SDS011;16278;48.740;8.736;2022-08-01T00:29:50;0.50;;;0.40;;
1737;SDS011;16278;48.740;8.736;2022-08-01T00:32:16;0.40;;;0.30;;
1737;SDS011;16278;48.740;8.736;2022-08-01T00:34:43;0.43;;;0.40;;
1737;SDS011;16278;48.740;8.736;2022-08-01T00:37:09;0.50;;;0.40;;
1737;SDS011;16278;48.740;8.736;2022-08-01T00:39:35;1.67;;;0.40;;
1737;SDS011;16278;48.740;8.736;2022-08-01T00:42:08;0.50;;;0.30;;
1737;SDS011;16278;48.740;8.736;2022-08-01T00:44:35;0.40;;;0.30;;
1737;SDS011;16278;48.740;8.736;2022-08-01T00:47:02;0.80;;;0.50;;
1737;SDS011;16278;48.740;8.736;2022-08-01T00:49:28;0.60;;;0.40;;
1737;SDS011;16278;48.740;8.736;2022-08-01T00:51:54;0.40;;;0.37;;
1737;SDS011;16278;48.740;8.736;2022-08-01T00:54:22;0.40;;;0.40;;
1737;SDS011;16278;48.740;8.736;2022-08-01T00:56:49;0.50;;;0.40;;
1737;SDS011;16278;48.740;8.736;2022-08-01T00:59:16;1.37;;;0.40;;
1737;SDS011;16278;48.740;8.736;2022-08-01T01:01:43;0.50;;;0.47;;
1737;SDS011;16278;48.740;8.736;2022-08-01T01:04:09;0.50;;;0.30;;
1737;SDS011;16278;48.740;8.736;2022-08-01T01:14:10;0.50;;;0.40;;
1737;SDS011;16278;48.740;8.736;2022-08-01T01:16:39;0.60;;;0.40;;
1737;SDS011;16278;48.740;8.736;2022-08-01T01:19:08;0.50;;;0.40;;
1737;SDS011;16278;48.740;8.736;2022-08-01T01:24:14;0.40;;;0.40;;
1737;SDS011;16278;48.740;8.736;2022-08-01T01:26:51;0.40;;;0.40;;
1737;SDS011;16278;48.740;8.736;2022-08-01T01:31:49;0.60;;;0.50;;
1737;SDS011;16278;48.740;8.736;2022-08-01T01:34:18;0.80;;;0.50;;
1737;SDS011;16278;48.740;8.736;2022-08-01T01:36:45;0.70;;;0.60;;
1737;SDS011;16278;48.740;8.736;2022-08-01T01:39:13;1.20;;;0.40;;
1737;SDS011;16278;48.740;8.736;2022-08-01T01:41:40;0.40;;;0.40;;
1737;SDS011;16278;48.740;8.736;2022-08-01T01:44:07;0.50;;;0.40;;
1737;SDS011;16278;48.740;8.736;2022-08-01T01:46:34;0.50;;;0.40;;
1737;SDS011;16278;48.740;8.736;2022-08-01T01:49:01;2.83;;;0.43;;
1737;SDS011;16278;48.740;8.736;2022-08-01T01:51:28;0.50;;;0.50;;
1737;SDS011;16278;48.740;8.736;2022-08-01T01:53:55;0.40;;;0.40;;
1737;SDS011;16278;48.740;8.736;2022-08-01T01:56:22;0.50;;;0.43;;
1737;SDS011;16278;48.740;8.736;2022-08-01T01:58:53;0.87;;;0.50;;
1737;SDS011;16278;48.740;8.736;2022-08-01T02:01:19;0.50;;;0.43;;
1737;SDS011;16278;48.740;8.736;2022-08-01T02:03:47;0.50;;;0.40;;
1737;SDS011;16278;48.740;8.736;2022-08-01T02:06:14;0.40;;;0.40;;
1737;SDS011;16278;48.740;8.736;2022-08-01T02:08:42;0.50;;;0.43;;
1737;SDS011;16278;48.740;8.736;2022-08-01T02:11:09;0.50;;;0.50;;
1737;SDS011;16278;48.740;8.736;2022-08-01T02:13:50;0.60;;;0.50;;
1737;SDS011;16278;48.740;8.736;2022-08-01T02:16:17;0.50;;;0.40;;
1737;SDS011;16278;48.740;8.736;2022-08-01T02:18:44;0.50;;;0.50;;
1737;SDS011;16278;48.740;8.736;2022-08-01T02:21:12;0.87;;;0.50;;
1737;SDS011;16278;48.740;8.736;2022-08-01T02:23:39;0.40;;;0.40;;
1737;SDS011;16278;48.740;8.736;2022-08-01T02:26:07;0.50;;;0.47;;
1737;SDS011;16278;48.740;8.736;2022-08-01T02:28:41;0.50;;;0.40;;
1737;SDS011;16278;48.740;8.736;2022-08-01T02:31:11;0.70;;;0.50;;
1737;SDS011;16278;48.740;8.736;2022-08-01T02:33:41;0.50;;;0.47;;
1737;SDS011;16278;48.740;8.736;2022-08-01T02:36:08;0.60;;;0.50;;
1737;SDS011;16278;48.740;8.736;2022-08-01T02:38:37;0.90;;;0.43;;
1737;SDS011;16278;48.740;8.736;2022-08-01T02:41:07;0.50;;;0.50;;
1737;SDS011;16278;48.740;8.736;2022-08-01T02:43:34;0.53;;;0.50;;
1737;SDS011;16278;48.740;8.736;2022-08-01T02:46:02;0.73;;;0.50;;
1737;SDS011;16278;48.740;8.736;2022-08-01T02:48:29;0.53;;;0.50;;
1737;SDS011;16278;48.740;8.736;2022-08-01T02:50:57;0.83;;;0.40;;
1737;SDS011;16278;48.740;8.736;2022-08-01T02:53:24;0.90;;;0.47;;
1737;SDS011;16278;48.740;8.736;2022-08-01T02:55:51;0.80;;;0.60;;
1737;SDS011;16278;48.740;8.736;2022-08-01T02:58:18;1.03;;;0.53;;
1737;SDS011;16278;48.740;8.736;2022-08-01T03:00:45;1.53;;;0.50;;
1737;SDS011;16278;48.740;8.736;2022-08-01T03:03:11;1.03;;;0.60;;
1737;SDS011;16278;48.740;8.736;2022-08-01T03:05:38;0.60;;;0.50;;
1737;SDS011;16278;48.740;8.736;2022-08-01T03:08:05;0.50;;;0.40;;
1737;SDS011;16278;48.740;8.736;2022-08-01T03:10:32;0.50;;;0.50;;
1737;SDS011;16278;48.740;8.736;2022-08-01T03:13:00;0.63;;;0.60;;
1737;SDS011;16278;48.740;8.736;2022-08-01T03:15:27;0.50;;;0.50;;
1737;SDS011;16278;48.740;8.736;2022-08-01T03:17:55;0.60;;;0.60;;
1737;SDS011;16278;48.740;8.736;2022-08-01T03:20:21;0.50;;;0.50;;
1737;SDS011;16278;48.740;8.736;2022-08-01T03:22:49;0.60;;;0.60;;
1737;SDS011;16278;48.740;8.736;2022-08-01T03:25:18;0.57;;;0.57;;
1737;SDS011;16278;48.740;8.736;2022-08-01T03:27:55;0.70;;;0.50;;
1737;SDS011;16278;48.740;8.736;2022-08-01T03:30:22;0.50;;;0.50;;
1737;SDS011;16278;48.740;8.736;2022-08-01T03:32:49;0.60;;;0.50;;
1737;SDS011;16278;48.740;8.736;2022-08-01T03:35:15;0.67;;;0.50;;
1737;SDS011;16278;48.740;8.736;2022-08-01T03:37:43;0.50;;;0.50;;
1737;SDS011;16278;48.740;8.736;2022-08-01T03:42:44;0.70;;;0.53;;
1737;SDS011;16278;48.740;8.736;2022-08-01T03:45:11;1.00;;;0.60;;
1737;SDS011;16278;48.740;8.736;2022-08-01T03:47:42;0.50;;;0.50;;
1737;SDS011;16278;48.740;8.736;2022-08-01T03:50:08;0.67;;;0.50;;
1737;SDS011;16278;48.740;8.736;2022-08-01T03:52:36;0.60;;;0.50;;
1737;SDS011;16278;48.740;8.736;2022-08-01T03:55:04;0.60;;;0.60;;
1737;SDS011;16278;48.740;8.736;2022-08-01T03:57:32;0.70;;;0.60;;
1737;SDS011;16278;48.740;8.736;2022-08-01T03:59:58;0.70;;;0.60;;
1737;SDS011;16278;48.740;8.736;2022-08-01T04:02:25;0.67;;;0.60;;
1737;SDS011;16278;48.740;8.736;2022-08-01T04:04:52;1.50;;;0.57;;
1737;SDS011;16278;48.740;8.736;2022-08-01T04:07:22;0.70;;;0.60;;
1737;SDS011;16278;48.740;8.736;2022-08-01T04:09:48;0.70;;;0.50;;
1737;SDS011;16278;48.740;8.736;2022-08-01T04:12:14;1.17;;;0.50;;
1737;SDS011;16278;48.740;8.736;2022-08-01T04:14:40;0.87;;;0.53;;
1737;SDS011;16278;48.740;8.736;2022-08-01T04:17:06;0.70;;;0.60;;
1737;SDS011;16278;48.740;8.736;2022-08-01T04:19:32;0.70;;;0.60;;
1737;SDS011;16278;48.740;8.736;2022-08-01T04:21:58;0.60;;;0.50;;
1737;SDS011;16278;48.740;8.736;2022-08-01T04:24:25;1.63;;;0.70;;
1737;SDS011;16278;48.740;8.736;2022-08-01T04:26:52;0.67;;;0.60;;
1737;SDS011;16278;48.740;8.736;2022-08-01T04:29:19;0.70;;;0.67;;
1737;SDS011;16278;48.740;8.736;2022-08-01T04:31:46;0.67;;;0.67;;
1737;SDS011;16278;48.740;8.736;2022-08-01T04:34:14;0.70;;;0.60;;
1737;SDS011;16278;48.740;8.736;2022-08-01T04:36:41;0.60;;;0.50;;
1737;SDS011;16278;48.740;8.736;2022-08-01T04:39:07;0.53;;;0.50;;
1737;SDS011;16278;48.740;8.736;2022-08-01T04:41:34;0.70;;;0.60;;
1737;SDS011;16278;48.740;8.736;2022-08-01T04:44:02;1.03;;;0.60;;
1737;SDS011;16278;48.740;8.736;2022-08-01T04:46:29;0.60;;;0.57;;
1737;SDS011;16278;48.740;8.736;2022-08-01T04:48:55;0.90;;;0.60;;
1737;SDS011;16278;48.740;8.736;2022-08-01T04:51:22;0.80;;;0.60;;
1737;SDS011;16278;48.740;8.736;2022-08-01T04:53:48;0.60;;;0.60;;
1737;SDS011;16278;48.740;8.736;2022-08-01T04:56:16;0.80;;;0.60;;
1737;SDS011;16278;48.740;8.736;2022-08-01T04:58:42;0.90;;;0.70;;
1737;SDS011;16278;48.740;8.736;2022-08-01T05:01:08;1.27;;;0.60;;
1737;SDS011;16278;48.740;8.736;2022-08-01T05:03:35;1.10;;;0.60;;
1737;SDS011;16278;48.740;8.736;2022-08-01T05:06:01;0.90;;;0.60;;
1737;SDS011;16278;48.740;8.736;2022-08-01T05:08:27;0.60;;;0.60;;
1737;SDS011;16278;48.740;8.736;2022-08-01T05:10:53;0.70;;;0.60;;
1737;SDS011;16278;48.740;8.736;2022-08-01T05:13:19;1.40;;;0.57;;
1737;SDS011;16278;48.740;8.736;2022-08-01T05:15:45;0.60;;;0.50;;
1737;SDS011;16278;48.740;8.736;2022-08-01T05:18:11;0.80;;;0.60;;
1737;SDS011;16278;48.740;8.736;2022-08-01T05:20:37;0.70;;;0.60;;
1737;SDS011;16278;48.740;8.736;2022-08-01T05:23:06;0.87;;;0.60;;
1737;SDS011;16278;48.740;8.736;2022-08-01T05:25:32;0.67;;;0.60;;
1737;SDS011;16278;48.740;8.736;2022-08-01T05:27:58;0.77;;;0.60;;
1737;SDS011;16278;48.740;8.736;2022-08-01T05:30:24;0.70;;;0.60;;
1737;SDS011;16278;48.740;8.736;2022-08-01T05:32:50;0.70;;;0.70;;
1737;SDS011;16278;48.740;8.736;2022-08-01T05:35:16;0.70;;;0.60;;
1737;SDS011;16278;48.740;8.736;2022-08-01T05:37:42;0.70;;;0.60;;
1737;SDS011;16278;48.740;8.736;2022-08-01T05:40:09;0.60;;;0.60;;
1737;SDS011;16278;48.740;8.736;2022-08-01T05:42:35;0.80;;;0.60;;
1737;SDS011;16278;48.740;8.736;2022-08-01T05:45:01;0.67;;;0.63;;
1737;SDS011;16278;48.740;8.736;2022-08-01T05:47:27;1.07;;;0.60;;
1737;SDS011;16278;48.740;8.736;2022-08-01T05:49:53;0.60;;;0.60;;
1737;SDS011;16278;48.740;8.736;2022-08-01T05:52:19;0.67;;;0.67;;
1737;SDS011;16278;48.740;8.736;2022-08-01T05:54:45;0.77;;;0.53;;
1737;SDS011;16278;48.740;8.736;2022-08-01T05:57:11;0.97;;;0.70;;
1737;SDS011;16278;48.740;8.736;2022-08-01T05:59:37;0.80;;;0.50;;
1737;SDS011;16278;48.740;8.736;2022-08-01T06:02:03;0.60;;;0.60;;
1737;SDS011;16278;48.740;8.736;2022-08-01T06:04:29;0.77;;;0.70;;
1737;SDS011;16278;48.740;8.736;2022-08-01T06:06:55;1.07;;;0.60;;
1737;SDS011;16278;48.740;8.736;2022-08-01T06:09:21;1.67;;;0.60;;
1737;SDS011;16278;48.740;8.736;2022-08-01T06:11:47;1.07;;;0.60;;
1737;SDS011;16278;48.740;8.736;2022-08-01T06:14:13;0.60;;;0.60;;
1737;SDS011;16278;48.740;8.736;2022-08-01T06:16:39;0.70;;;0.70;;
1737;SDS011;16278;48.740;8.736;2022-08-01T06:19:05;0.67;;;0.60;;
1737;SDS011;16278;48.740;8.736;2022-08-01T06:21:31;0.60;;;0.60;;
1737;SDS011;16278;48.740;8.736;2022-08-01T06:23:57;0.83;;;0.60;;
1737;SDS011;16278;48.740;8.736;2022-08-01T06:26:23;0.60;;;0.53;;
1737;SDS011;16278;48.740;8.736;2022-08-01T06:28:49;0.50;;;0.50;;
1737;SDS011;16278;48.740;8.736;2022-08-01T06:31:15;0.60;;;0.50;;
1737;SDS011;16278;48.740;8.736;2022-08-01T06:33:41;0.50;;;0.50;;
1737;SDS011;16278;48.740;8.736;2022-08-01T06:36:07;0.60;;;0.50;;
1737;SDS011;16278;48.740;8.736;2022-08-01T06:38:34;0.60;;;0.60;;
1737;SDS011;16278;48.740;8.736;2022-08-01T06:41:00;0.50;;;0.50;;
1737;SDS011;16278;48.740;8.736;2022-08-01T06:43:26;0.60;;;0.50;;
1737;SDS011;16278;48.740;8.736;2022-08-01T06:45:52;0.53;;;0.47;;
1737;SDS011;16278;48.740;8.736;2022-08-01T06:48:18;0.60;;;0.50;;
1737;SDS011;16278;48.740;8.736;2022-08-01T06:50:44;0.70;;;0.53;;
1737;SDS011;16278;48.740;8.736;2022-08-01T06:53:10;0.60;;;0.43;;
1737;SDS011;16278;48.740;8.736;2022-08-01T06:55:36;0.70;;;0.40;;
1737;SDS011;16278;48.740;8.736;2022-08-01T06:58:02;0.77;;;0.50;;
1737;SDS011;16278;48.740;8.736;2022-08-01T07:00:28;0.70;;;0.40;;
1737;SDS011;16278;48.740;8.736;2022-08-01T07:02:55;0.60;;;0.40;;
1737;SDS011;16278;48.740;8.736;2022-08-01T07:05:21;0.57;;;0.40;;
1737;SDS011;16278;48.740;8.736;2022-08-01T07:07:48;0.60;;;0.50;;
1737;SDS011;16278;48.740;8.736;2022-08-01T07:10:14;0.50;;;0.40;;
1737;SDS011;16278;48.740;8.736;2022-08-01T07:12:40;0.40;;;0.40;;
1737;SDS011;16278;48.740;8.736;2022-08-01T07:15:06;0.50;;;0.30;;
1737;SDS011;16278;48.740;8.736;2022-08-01T07:17:36;0.47;;;0.40;;
1737;SDS011;16278;48.740;8.736;2022-08-01T07:20:02;0.60;;;0.40;;
1737;SDS011;16278;48.740;8.736;2022-08-01T07:22:28;0.40;;;0.30;;
1737;SDS011;16278;48.740;8.736;2022-08-01T07:24:54;0.40;;;0.40;;
1737;SDS011;16278;48.740;8.736;2022-08-01T07:27:20;0.40;;;0.30;;
1737;SDS011;16278;48.740;8.736;2022-08-01T07:29:46;0.40;;;0.40;;
1737;SDS011;16278;48.740;8.736;2022-08-01T07:32:12;0.70;;;0.40;;
1737;SDS011;16278;48.740;8.736;2022-08-01T07:34:38;0.40;;;0.30;;
1737;SDS011;16278;48.740;8.736;2022-08-01T07:37:04;0.40;;;0.40;;
1737;SDS011;16278;48.740;8.736;2022-08-01T07:39:30;0.40;;;0.40;;
1737;SDS011;16278;48.740;8.736;2022-08-01T07:41:56;0.60;;;0.30;;
1737;SDS011;16278;48.740;8.736;2022-08-01T07:44:22;0.60;;;0.40;;
1737;SDS011;16278;48.740;8.736;2022-08-01T07:46:48;0.50;;;0.30;;
1737;SDS011;16278;48.740;8.736;2022-08-01T07:49:14;0.40;;;0.30;;
1737;SDS011;16278;48.740;8.736;2022-08-01T07:51:40;0.40;;;0.40;;
1737;SDS011;16278;48.740;8.736;2022-08-01T07:54:06;0.33;;;0.30;;
1737;SDS011;16278;48.740;8.736;2022-08-01T07:56:32;0.40;;;0.40;;
1737;SDS011;16278;48.740;8.736;2022-08-01T07:58:59;0.40;;;0.40;;
1737;SDS011;16278;48.740;8.736;2022-08-01T08:01:24;0.50;;;0.40;;
1737;SDS011;16278;48.740;8.736;2022-08-01T08:03:51;0.50;;;0.40;;
1737;SDS011;16278;48.740;8.736;2022-08-01T08:06:17;0.50;;;0.40;;
1737;SDS011;16278;48.740;8.736;2022-08-01T08:08:43;0.40;;;0.40;;
1737;SDS011;16278;48.740;8.736;2022-08-01T08:11:09;1.17;;;0.40;;
1737;SDS011;16278;48.740;8.736;2022-08-01T08:13:35;0.97;;;0.40;;
1737;SDS011;16278;48.740;8.736;2022-08-01T08:16:01;0.40;;;0.40;;
1737;SDS011;16278;48.740;8.736;2022-08-01T08:18:27;0.57;;;0.53;;
1737;SDS011;16278;48.740;8.736;2022-08-01T08:20:53;0.70;;;0.50;;
1737;SDS011;16278;48.740;8.736;2022-08-01T08:23:19;0.57;;;0.50;;
1737;SDS011;16278;48.740;8.736;2022-08-01T08:26:04;0.60;;;0.40;;
1737;SDS011;16278;48.740;8.736;2022-08-01T08:28:30;0.70;;;0.50;;
1737;SDS011;16278;48.740;8.736;2022-08-01T08:30:56;0.53;;;0.43;;
1737;SDS011;16278;48.740;8.736;2022-08-01T08:33:22;0.50;;;0.50;;
1737;SDS011;16278;48.740;8.736;2022-08-01T08:35:48;0.47;;;0.40;;
1737;SDS011;16278;48.740;8.736;2022-08-01T08:38:14;0.50;;;0.40;;
1737;SDS011;16278;48.740;8.736;2022-08-01T08:40:40;0.50;;;0.40;;
1737;SDS011;16278;48.740;8.736;2022-08-01T08:43:06;0.50;;;0.40;;
1737;SDS011;16278;48.740;8.736;2022-08-01T08:45:33;0.70;;;0.60;;
1737;SDS011;16278;48.740;8.736;2022-08-01T08:47:59;0.53;;;0.40;;
1737;SDS011;16278;48.740;8.736;2022-08-01T08:50:25;0.50;;;0.43;;
1737;SDS011;16278;48.740;8.736;2022-08-01T08:52:52;0.50;;;0.40;;
1737;SDS011;16278;48.740;8.736;2022-08-01T08:55:19;0.60;;;0.50;;
1737;SDS011;16278;48.740;8.736;2022-08-01T08:57:45;0.60;;;0.40;;
1737;SDS011;16278;48.740;8.736;2022-08-01T09:00:12;0.60;;;0.40;;
1737;SDS011;16278;48.740;8.736;2022-08-01T09:02:43;0.57;;;0.47;;
1737;SDS011;16278;48.740;8.736;2022-08-01T09:05:09;0.40;;;0.40;;
1737;SDS011;16278;48.740;8.736;2022-08-01T09:07:35;0.50;;;0.40;;
1737;SDS011;16278;48.740;8.736;2022-08-01T09:10:01;0.40;;;0.40;;
1737;SDS011;16278;48.740;8.736;2022-08-01T09:12:28;0.40;;;0.40;;
1737;SDS011;16278;48.740;8.736;2022-08-01T09:14:54;0.40;;;0.30;;
1737;SDS011;16278;48.740;8.736;2022-08-01T09:17:20;0.40;;;0.40;;
1737;SDS011;16278;48.740;8.736;2022-08-01T09:19:47;1.23;;;0.40;;
1737;SDS011;16278;48.740;8.736;2022-08-01T09:22:15;0.50;;;0.40;;
1737;SDS011;16278;48.740;8.736;2022-08-01T09:24:58;0.30;;;0.30;;
1737;SDS011;16278;48.740;8.736;2022-08-01T09:27:25;0.40;;;0.40;;
1737;SDS011;16278;48.740;8.736;2022-08-01T09:29:51;0.40;;;0.30;;
1737;SDS011;16278;48.740;8.736;2022-08-01T09:32:18;0.87;;;0.40;;
1737;SDS011;16278;48.740;8.736;2022-08-01T09:34:44;1.17;;;0.33;;
1737;SDS011;16278;48.740;8.736;2022-08-01T09:37:11;0.60;;;0.40;;
1737;SDS011;16278;48.740;8.736;2022-08-01T09:39:39;0.90;;;0.40;;
1737;SDS011;16278;48.740;8.736;2022-08-01T09:44:46;0.83;;;0.40;;
1737;SDS011;16278;48.740;8.736;2022-08-01T09:47:12;1.00;;;0.50;;
1737;SDS011;16278;48.740;8.736;2022-08-01T09:49:39;0.60;;;0.30;;
1737;SDS011;16278;48.740;8.736;2022-08-01T09:54:37;0.50;;;0.30;;
1737;SDS011;16278;48.740;8.736;2022-08-01T09:57:11;0.60;;;0.40;;
1737;SDS011;16278;48.740;8.736;2022-08-01T09:59:38;0.53;;;0.30;;
1737;SDS011;16278;48.740;8.736;2022-08-01T10:02:07;0.50;;;0.33;;
1737;SDS011;16278;48.740;8.736;2022-08-01T10:04:33;1.20;;;0.40;;
1737;SDS011;16278;48.740;8.736;2022-08-01T10:07:03;0.60;;;0.50;;
1737;SDS011;16278;48.740;8.736;2022-08-01T10:09:30;0.33;;;0.30;;
1737;SDS011;16278;48.740;8.736;2022-08-01T10:11:57;0.40;;;0.30;;
1737;SDS011;16278;48.740;8.736;2022-08-01T10:14:24;0.60;;;0.50;;
1737;SDS011;16278;48.740;8.736;2022-08-01T10:16:51;0.40;;;0.40;;
1737;SDS011;16278;48.740;8.736;2022-08-01T10:19:18;0.50;;;0.40;;
1737;SDS011;16278;48.740;8.736;2022-08-01T10:21:46;0.43;;;0.37;;
1737;SDS011;16278;48.740;8.736;2022-08-01T10:24:14;0.40;;;0.40;;
1737;SDS011;16278;48.740;8.736;2022-08-01T10:26:41;0.50;;;0.40;;
1737;SDS011;16278;48.740;8.736;2022-08-01T10:29:08;0.50;;;0.40;;
1737;SDS011;16278;48.740;8.736;2022-08-01T10:31:34;0.40;;;0.40;;
1737;SDS011;16278;48.740;8.736;2022-08-01T10:34:02;0.50;;;0.40;;
1737;SDS011;16278;48.740;8.736;2022-08-01T10:36:28;0.40;;;0.40;;
1737;SDS011;16278;48.740;8.736;2022-08-01T10:38:55;0.40;;;0.40;;
1737;SDS011;16278;48.740;8.736;2022-08-01T10:41:21;0.40;;;0.30;;
1737;SDS011;16278;48.740;8.736;2022-08-01T10:43:47;0.40;;;0.40;;
1737;SDS011;16278;48.740;8.736;2022-08-01T10:46:13;0.40;;;0.40;;
1737;SDS011;16278;48.740;8.736;2022-08-01T10:48:51;0.40;;;0.40;;
1737;SDS011;16278;48.740;8.736;2022-08-01T10:51:20;0.30;;;0.30;;
1737;SDS011;16278;48.740;8.736;2022-08-01T10:53:47;1.00;;;0.40;;
1737;SDS011;16278;48.740;8.736;2022-08-01T10:56:15;0.40;;;0.37;;
1737;SDS011;16278;48.740;8.736;2022-08-01T10:58:42;0.33;;;0.33;;
1737;SDS011;16278;48.740;8.736;2022-08-01T11:01:12;0.40;;;0.30;;
1737;SDS011;16278;48.740;8.736;2022-08-01T11:03:38;0.50;;;0.40;;
1737;SDS011;16278;48.740;8.736;2022-08-01T11:06:04;0.40;;;0.40;;
1737;SDS011;16278;48.740;8.736;2022-08-01T11:08:31;0.40;;;0.30;;
1737;SDS011;16278;48.740;8.736;2022-08-01T11:11:00;0.33;;;0.30;;
1737;SDS011;16278;48.740;8.736;2022-08-01T11:18:56;0.30;;;0.30;;
1737;SDS011;16278;48.740;8.736;2022-08-01T11:21:22;0.30;;;0.30;;
1737;SDS011;16278;48.740;8.736;2022-08-01T11:24:08;0.40;;;0.30;;
1737;SDS011;16278;48.740;8.736;2022-08-01T11:26:34;0.40;;;0.30;;
1737;SDS011;16278;48.740;8.736;2022-08-01T11:29:16;0.43;;;0.30;;
1737;SDS011;16278;48.740;8.736;2022-08-01T11:31:42;0.30;;;0.30;;
1737;SDS011;16278;48.740;8.736;2022-08-01T11:34:08;0.40;;;0.40;;
1737;SDS011;16278;48.740;8.736;2022-08-01T11:36:34;0.33;;;0.30;;
1737;SDS011;16278;48.740;8.736;2022-08-01T11:41:27;0.40;;;0.40;;
1737;SDS011;16278;48.740;8.736;2022-08-01T11:49:23;0.40;;;0.40;;
1737;SDS011;16278;48.740;8.736;2022-08-01T19:17:22;0.40;;;0.30;;
1737;SDS011;16278;48.740;8.736;2022-08-01T19:19:51;0.37;;;0.20;;
1737;SDS011;16278;48.740;8.736;2022-08-01T19:22:18;0.30;;;0.20;;
1737;SDS011;16278;48.740;8.736;2022-08-01T19:24:44;0.30;;;0.10;;
1737;SDS011;16278;48.740;8.736;2022-08-01T19:27:10;0.30;;;0.20;;
1737;SDS011;16278;48.740;8.736;2022-08-01T19:29:41;0.40;;;0.20;;
1737;SDS011;16278;48.740;8.736;2022-08-01T19:32:08;0.30;;;0.20;;
1737;SDS011;16278;48.740;8.736;2022-08-01T19:34:35;0.30;;;0.20;;
1737;SDS011;16278;48.740;8.736;2022-08-01T19:37:08;0.40;;;0.20;;
1737;SDS011;16278;48.740;8.736;2022-08-01T19:39:34;0.40;;;0.20;;
1737;SDS011;16278;48.740;8.736;2022-08-01T19:42:00;0.30;;;0.20;;
1737;SDS011;16278;48.740;8.736;2022-08-01T19:44:27;0.40;;;0.20;;
1737;SDS011;16278;48.740;8.736;2022-08-01T19:46:54;0.60;;;0.20;;
1737;SDS011;16278;48.740;8.736;2022-08-01T19:49:20;1.17;;;0.20;;
1737;SDS011;16278;48.740;8.736;2022-08-01T19:51:48;0.30;;;0.20;;
1737;SDS011;16278;48.740;8.736;2022-08-01T19:54:14;0.40;;;0.20;;
1737;SDS011;16278;48.740;8.736;2022-08-01T19:56:41;0.20;;;0.20;;
1737;SDS011;16278;48.740;8.736;2022-08-01T19:59:12;0.43;;;0.30;;
1737;SDS011;16278;48.740;8.736;2022-08-01T20:01:39;0.30;;;0.20;;
1737;SDS011;16278;48.740;8.736;2022-08-01T20:04:05;0.63;;;0.20;;
1737;SDS011;16278;48.740;8.736;2022-08-01T20:06:32;0.50;;;0.20;;
1737;SDS011;16278;48.740;8.736;2022-08-01T20:08:59;0.30;;;0.20;;
1737;SDS011;16278;48.740;8.736;2022-08-01T20:11:25;0.30;;;0.20;;
1737;SDS011;16278;48.740;8.736;2022-08-01T20:13:52;0.30;;;0.20;;
1737;SDS011;16278;48.740;8.736;2022-08-01T20:16:18;0.30;;;0.20;;
1737;SDS011;16278;48.740;8.736;2022-08-01T20:18:44;0.47;;;0.20;;
1737;SDS011;16278;48.740;8.736;2022-08-01T20:21:10;0.30;;;0.20;;
1737;SDS011;16278;48.740;8.736;2022-08-01T20:23:37;0.40;;;0.30;;
1737;SDS011;16278;48.740;8.736;2022-08-01T20:26:04;0.63;;;0.20;;
1737;SDS011;16278;48.740;8.736;2022-08-01T20:28:30;0.30;;;0.20;;
1737;SDS011;16278;48.740;8.736;2022-08-01T20:31:00;0.50;;;0.20;;
1737;SDS011;16278;48.740;8.736;2022-08-01T20:33:26;0.30;;;0.20;;
1737;SDS011;16278;48.740;8.736;2022-08-01T20:35:53;0.40;;;0.30;;
1737;SDS011;16278;48.740;8.736;2022-08-01T20:38:23;0.30;;;0.20;;
1737;SDS011;16278;48.740;8.736;2022-08-01T20:40:50;0.40;;;0.20;;
1737;SDS011;16278;48.740;8.736;2022-08-01T20:43:17;0.20;;;0.20;;
1737;SDS011;16278;48.740;8.736;2022-08-01T20:45:44;0.90;;;0.20;;
1737;SDS011;16278;48.740;8.736;2022-08-01T20:48:11;0.43;;;0.20;;
1737;SDS011;16278;48.740;8.736;2022-08-01T20:50:37;0.37;;;0.23;;
1737;SDS011;16278;48.740;8.736;2022-08-01T20:53:22;0.27;;;0.23;;
1737;SDS011;16278;48.740;8.736;2022-08-01T20:55:49;0.37;;;0.20;;
1737;SDS011;16278;48.740;8.736;2022-08-01T20:58:22;0.60;;;0.30;;
1737;SDS011;16278;48.740;8.736;2022-08-01T21:00:50;0.50;;;0.20;;
1737;SDS011;16278;48.740;8.736;2022-08-01T21:03:18;0.43;;;0.20;;
1737;SDS011;16278;48.740;8.736;2022-08-01T21:06:11;0.30;;;0.20;;
1737;SDS011;16278;48.740;8.736;2022-08-01T21:08:34;0.30;;;0.20;;
1737;SDS011;16278;48.740;8.736;2022-08-01T21:11:05;0.30;;;0.20;;
1737;SDS011;16278;48.740;8.736;2022-08-01T21:13:42;0.40;;;0.20;;
1737;SDS011;16278;48.740;8.736;2022-08-01T21:16:13;0.43;;;0.30;;
1737;SDS011;16278;48.740;8.736;2022-08-01T21:18:55;0.97;;;0.23;;
1737;SDS011;16278;48.740;8.736;2022-08-01T21:21:22;0.90;;;0.20;;
1737;SDS011;16278;48.740;8.736;2022-08-01T21:24:14;0.93;;;0.20;;
1737;SDS011;16278;48.740;8.736;2022-08-01T21:26:41;0.40;;;0.20;;
1737;SDS011;16278;48.740;8.736;2022-08-01T21:29:09;0.50;;;0.20;;
1737;SDS011;16278;48.740;8.736;2022-08-01T21:31:35;0.40;;;0.30;;
1737;SDS011;16278;48.740;8.736;2022-08-01T21:34:02;0.40;;;0.20;;
1737;SDS011;16278;48.740;8.736;2022-08-01T21:36:29;0.30;;;0.20;;
1737;SDS011;16278;48.740;8.736;2022-08-01T21:38:56;0.40;;;0.20;;
1737;SDS011;16278;48.740;8.736;2022-08-01T21:41:23;0.20;;;0.20;;
1737;SDS011;16278;48.740;8.736;2022-08-01T21:43:49;0.30;;;0.20;;
1737;SDS011;16278;48.740;8.736;2022-08-01T21:46:15;0.30;;;0.20;;
1737;SDS011;16278;48.740;8.736;2022-08-01T21:48:43;0.30;;;0.30;;
1737;SDS011;16278;48.740;8.736;2022-08-01T21:51:23;0.87;;;0.20;;
1737;SDS011;16278;48.740;8.736;2022-08-01T22:01:59;0.40;;;0.30;;
1737;SDS011;16278;48.740;8.736;2022-08-01T22:04:33;0.37;;;0.20;;
1737;SDS011;16278;48.740;8.736;2022-08-01T22:07:02;0.30;;;0.20;;
1737;SDS011;16278;48.740;8.736;2022-08-01T22:09:29;0.30;;;0.20;;
1737;SDS011;16278;48.740;8.736;2022-08-01T22:11:56;0.50;;;0.20;;
1737;SDS011;16278;48.740;8.736;2022-08-01T22:14:25;0.40;;;0.20;;
1737;SDS011;16278;48.740;8.736;2022-08-01T22:16:51;0.40;;;0.20;;
1737;SDS011;16278;48.740;8.736;2022-08-01T22:19:17;0.30;;;0.20;;
1737;SDS011;16278;48.740;8.736;2022-08-01T22:21:43;0.30;;;0.20;;
1737;SDS011;16278;48.740;8.736;2022-08-01T22:24:11;0.30;;;0.20;;
1737;SDS011;16278;48.740;8.736;2022-08-01T22:26:37;0.40;;;0.20;;
1737;SDS011;16278;48.740;8.736;2022-08-01T22:29:03;0.30;;;0.20;;
1737;SDS011;16278;48.740;8.736;2022-08-01T22:31:29;0.30;;;0.20;;
1737;SDS011;16278;48.740;8.736;2022-08-01T22:33:55;0.40;;;0.20;;
1737;SDS011;16278;48.740;8.736;2022-08-01T22:36:22;0.20;;;0.20;;
1737;SDS011;16278;48.740;8.736;2022-08-01T22:38:48;0.40;;;0.20;;
1737;SDS011;16278;48.740;8.736;2022-08-01T22:41:17;0.30;;;0.20;;
1737;SDS011;16278;48.740;8.736;2022-08-01T22:46:20;0.30;;;0.20;;
1737;SDS011;16278;48.740;8.736;2022-08-01T22:48:50;0.20;;;0.20;;
1737;SDS011;16278;48.740;8.736;2022-08-01T22:56:24;0.30;;;0.20;;
1737;SDS011;16278;48.740;8.736;2022-08-01T22:58:51;0.50;;;0.20;;
1737;SDS011;16278;48.740;8.736;2022-08-01T23:01:20;0.40;;;0.20;;
1737;SDS011;16278;48.740;8.736;2022-08-01T23:03:46;0.30;;;0.20;;
1737;SDS011;16278;48.740;8.736;2022-08-01T23:09:09;0.27;;;0.20;;
1737;SDS011;16278;48.740;8.736;2022-08-01T23:11:37;0.33;;;0.20;;
1737;SDS011;16278;48.740;8.736;2022-08-01T23:14:03;0.30;;;0.20;;
1737;SDS011;16278;48.740;8.736;2022-08-01T23:16:29;0.60;;;0.30;;
1737;SDS011;16278;48.740;8.736;2022-08-01T23:18:58;0.20;;;0.20;;